Time;durP1;ratioP1;P1;durP2;ratioP2;P2;SDS_P1;SDS_P2;PMS_P1;PMS_P2;Temp;Humidity;BMP_temperature;BMP_pressure;BME280_temperature;BME280_humidity;BME280_pressure;Samples;Min_cycle;Max_cycle;Signal;HPM_P1;HPM_P2
2024/01/11 00:01:25;;;;;;;30.10;11.48;;;-5.30;99.90;;;;;;4951241;29;20047;-67
2024/01/11 00:03:52;;;;;;;31.08;12.93;;;-5.30;99.90;;;;;;4956449;28;20047;-67
2024/01/11 00:06:19;;;;;;;36.83;13.52;;;-5.30;99.90;;;;;;4936312;29;20146;-67
2024/01/11 00:08:46;;;;;;;24.70;9.57;;;-5.20;99.90;;;;;;4956058;29;20080;-67
2024/01/11 00:11:13;;;;;;;26.85;10.63;;;-5.20;99.90;;;;;;4955845;29;20051;-67
2024/01/11 00:13:44;;;;;;;25.25;8.82;;;-5.20;99.90;;;;;;4955978;28;20107;-67
2024/01/11 00:16:10;;;;;;;22.20;8.48;;;-5.30;99.90;;;;;;4952599;29;20497;-67
2024/01/11 00:18:37;;;;;;;22.48;8.18;;;-5.40;99.90;;;;;;4952160;29;20048;-67
2024/01/11 00:21:04;;;;;;;18.77;8.23;;;-5.40;99.90;;;;;;4952029;28;20485;-67
2024/01/11 00:23:31;;;;;;;26.13;8.57;;;-5.40;99.90;;;;;;4950792;28;20039;-67
2024/01/11 00:25:59;;;;;;;26.20;10.13;;;-5.30;99.90;;;;;;4953009;29;20083;-67
2024/01/11 00:28:26;;;;;;;22.17;8.95;;;-5.30;99.90;;;;;;4952541;28;20535;-67
2024/01/11 00:30:52;;;;;;;23.80;9.07;;;-5.30;99.90;;;;;;4954449;29;20470;-67
2024/01/11 00:33:19;;;;;;;22.20;9.52;;;-5.30;99.90;;;;;;4954955;29;20055;-67
2024/01/11 00:35:46;;;;;;;27.50;11.40;;;-5.30;99.90;;;;;;4955769;28;20043;-67
2024/01/11 00:38:13;;;;;;;30.90;11.65;;;-5.30;99.90;;;;;;4952686;28;20043;-67
2024/01/11 00:40:40;;;;;;;;;;;-5.30;99.90;;;;;;4954202;29;20039;-67
2024/01/11 00:43:07;;;;;;;25.48;10.20;;;-5.30;99.90;;;;;;4953249;29;19922;-67
2024/01/11 00:45:33;;;;;;;26.85;10.93;;;-5.30;99.90;;;;;;4949296;29;20039;-67
2024/01/11 00:48:00;;;;;;;28.63;10.85;;;-5.30;99.90;;;;;;4955252;29;20043;-67
2024/01/11 00:50:27;;;;;;;;;;;-5.20;99.90;;;;;;4955197;29;20047;-67
2024/01/11 00:52:54;;;;;;;23.80;10.23;;;-5.20;99.90;;;;;;4949305;29;19928;-67
2024/01/11 00:55:21;;;;;;;25.88;10.57;;;-5.20;99.90;;;;;;4953412;28;20079;-67
2024/01/11 00:57:48;;;;;;;27.08;10.55;;;-5.10;99.90;;;;;;4955419;29;20039;-67
2024/01/11 01:00:15;;;;;;;29.48;11.70;;;-5.00;99.90;;;;;;4955403;29;20047;-67
2024/01/11 01:02:42;;;;;;;30.30;11.60;;;-4.90;99.90;;;;;;4941773;29;20039;-67
2024/01/11 01:05:09;;;;;;;25.73;10.00;;;-4.80;99.90;;;;;;4943942;28;20048;-67
2024/01/11 01:07:35;;;;;;;26.77;10.35;;;-4.80;99.90;;;;;;4947418;29;20059;-67
2024/01/11 01:10:02;;;;;;;29.55;10.77;;;-4.70;99.90;;;;;;4954498;28;20046;-67
2024/01/11 01:12:29;;;;;;;25.95;11.35;;;-4.70;99.90;;;;;;4947399;29;20057;-67
2024/01/11 01:14:56;;;;;;;25.00;9.38;;;-4.70;99.90;;;;;;4955413;28;20396;-67
2024/01/11 01:17:23;;;;;;;29.90;10.07;;;-4.80;99.90;;;;;;4954846;29;20078;-67
2024/01/11 01:19:49;;;;;;;24.38;9.35;;;-4.90;99.90;;;;;;4946932;29;20075;-67
2024/01/11 01:22:16;;;;;;;25.30;10.30;;;-4.90;99.90;;;;;;4947669;29;20540;-67
2024/01/11 01:24:43;;;;;;;24.33;10.82;;;-4.90;99.90;;;;;;4955097;28;20039;-67
2024/01/11 01:27:10;;;;;;;31.35;11.10;;;-4.90;99.90;;;;;;4947168;29;20062;-67
2024/01/11 01:29:36;;;;;;;26.05;12.27;;;-4.80;99.90;;;;;;4954669;29;20043;-67
2024/01/11 01:32:04;;;;;;;29.00;10.75;;;-4.90;99.90;;;;;;4953507;29;20043;-67
2024/01/11 01:34:31;;;;;;;31.08;11.38;;;-5.00;99.90;;;;;;4954684;28;20456;-67
2024/01/11 01:36:57;;;;;;;33.65;12.52;;;-4.90;99.90;;;;;;4951119;29;20126;-67
2024/01/11 01:39:24;;;;;;;30.83;12.40;;;-4.90;99.90;;;;;;4946946;29;20126;-67
2024/01/11 01:41:51;;;;;;;29.02;12.02;;;-4.80;99.90;;;;;;4954319;29;20054;-67
2024/01/11 01:44:18;;;;;;;26.92;11.20;;;-4.70;99.90;;;;;;4938335;29;20417;-68
2024/01/11 01:46:45;;;;;;;25.05;10.27;;;-4.70;99.90;;;;;;4933560;29;20051;-67
2024/01/11 01:49:12;;;;;;;28.33;11.23;;;-4.60;99.90;;;;;;4950925;29;20118;-67
2024/01/11 01:51:39;;;;;;;29.17;11.73;;;-4.60;99.90;;;;;;4928343;29;20051;-68
2024/01/11 01:54:06;;;;;;;;;;;-4.60;99.90;;;;;;4954741;28;20043;-68
2024/01/11 01:56:33;;;;;;;26.63;10.75;;;-4.60;99.90;;;;;;4948658;29;19922;-68
2024/01/11 01:59:01;;;;;;;17.27;7.32;;;-4.60;99.90;;;;;;4953014;29;20547;-67
2024/01/11 02:01:28;;;;;;;19.30;7.40;;;-4.60;99.90;;;;;;4944417;29;20071;-67
2024/01/11 02:03:55;;;;;;;20.17;7.65;;;-4.50;99.90;;;;;;4948760;28;20489;-68
2024/01/11 02:06:26;;;;;;;19.30;8.23;;;-4.50;99.90;;;;;;4952696;29;20053;-67
2024/01/11 02:08:56;;;;;;;25.02;10.50;;;-4.40;99.90;;;;;;4954408;29;20400;-68
2024/01/11 02:11:23;;;;;;;21.75;9.30;;;-4.40;99.90;;;;;;4946533;29;20082;-67
2024/01/11 02:13:50;;;;;;;24.42;10.13;;;-4.40;99.90;;;;;;4954384;28;20129;-68
2024/01/11 02:16:17;;;;;;;15.50;6.93;;;-4.40;99.90;;;;;;4952885;29;20062;-67
2024/01/11 02:18:44;;;;;;;17.98;6.00;;;-4.50;99.90;;;;;;4936934;29;20138;-68
2024/01/11 02:21:13;;;;;;;;;;;-4.40;99.90;;;;;;4954065;28;20469;-67
2024/01/11 02:23:46;;;;;;;14.85;6.18;;;-4.40;99.90;;;;;;4950575;28;20324;-68
2024/01/11 02:26:14;;;;;;;17.80;7.20;;;-4.30;99.90;;;;;;4923559;29;20066;-67
2024/01/11 02:28:45;;;;;;;15.40;7.45;;;-4.20;99.90;;;;;;4953350;29;20139;-67
2024/01/11 02:31:13;;;;;;;21.05;8.38;;;-4.00;99.90;;;;;;4951167;29;20044;-67
2024/01/11 02:33:41;;;;;;;21.90;9.18;;;-3.90;99.90;;;;;;4953322;28;20039;-67
2024/01/11 02:36:08;;;;;;;26.50;9.38;;;-3.90;99.90;;;;;;4951074;29;20067;-67
2024/01/11 02:38:35;;;;;;;25.88;10.93;;;-3.80;99.90;;;;;;4953620;29;20127;-67
2024/01/11 02:41:03;;;;;;;24.25;10.25;;;-3.80;99.90;;;;;;4949532;29;20507;-67
2024/01/11 02:43:30;;;;;;;22.50;10.43;;;-3.80;99.90;;;;;;4945549;28;20056;-67
2024/01/11 02:45:58;;;;;;;26.13;11.55;;;-3.70;99.90;;;;;;4952969;29;20042;-67
2024/01/11 02:48:29;;;;;;;36.17;15.40;;;-3.70;99.90;;;;;;4952251;29;20048;-68
2024/01/11 02:50:57;;;;;;;26.63;12.48;;;-3.60;99.90;;;;;;4953287;29;20063;-67
2024/01/11 02:53:24;;;;;;;32.30;11.98;;;-3.60;99.90;;;;;;4945512;29;20043;-69
2024/01/11 02:55:51;;;;;;;29.75;13.07;;;-3.60;99.90;;;;;;4953555;29;20047;-67
2024/01/11 02:58:18;;;;;;;31.83;12.43;;;-3.60;99.90;;;;;;4953366;29;20039;-67
2024/01/11 03:00:45;;;;;;;30.45;11.82;;;-3.60;99.90;;;;;;4950476;29;20477;-67
2024/01/11 03:03:12;;;;;;;27.55;9.95;;;-3.60;99.90;;;;;;4953546;29;20053;-67
2024/01/11 03:05:39;;;;;;;;;;;-3.50;99.90;;;;;;4950831;28;20063;-67
2024/01/11 03:08:06;;;;;;;23.13;8.63;;;-3.60;99.90;;;;;;4946788;29;19950;-67
2024/01/11 03:10:33;;;;;;;19.13;8.77;;;-3.60;99.90;;;;;;4944616;29;20051;-67
2024/01/11 03:13:00;;;;;;;19.75;8.25;;;-3.60;99.90;;;;;;4948027;29;20382;-67
2024/01/11 03:15:27;;;;;;;16.92;8.48;;;-3.60;99.90;;;;;;4947654;28;20044;-67
2024/01/11 03:17:53;;;;;;;26.85;10.38;;;-3.60;99.90;;;;;;4949200;29;20050;-67
2024/01/11 03:20:24;;;;;;;;;;;-3.50;99.90;;;;;;4952846;29;20592;-67
2024/01/11 03:22:52;;;;;;;27.70;11.50;;;-3.50;99.90;;;;;;4949307;29;19923;-68
2024/01/11 03:25:19;;;;;;;34.63;13.50;;;-3.40;99.90;;;;;;4951921;28;20094;-68
2024/01/11 03:27:46;;;;;;;37.33;14.85;;;-3.30;99.90;;;;;;4953230;29;20050;-67
2024/01/11 03:30:13;;;;;;;33.28;14.32;;;-3.30;99.90;;;;;;4952810;29;20043;-68
2024/01/11 03:32:40;;;;;;;;;;;-3.30;99.90;;;;;;4945538;29;20050;-68
2024/01/11 03:35:08;;;;;;;31.52;13.25;;;-3.20;99.90;;;;;;4955178;28;19965;-67
2024/01/11 03:37:35;;;;;;;28.92;12.75;;;-3.20;99.90;;;;;;4956938;29;20043;-67
2024/01/11 03:40:03;;;;;;;31.80;11.35;;;-3.20;99.90;;;;;;4947590;29;20515;-67
2024/01/11 03:42:30;;;;;;;25.67;12.80;;;-3.20;99.90;;;;;;4956702;29;20074;-67
2024/01/11 03:44:57;;;;;;;32.63;13.93;;;-3.30;99.90;;;;;;4938787;29;20127;-67
2024/01/11 03:47:24;;;;;;;35.35;14.35;;;-3.30;99.90;;;;;;4949939;29;20074;-68
2024/01/11 03:49:50;;;;;;;33.55;15.23;;;-3.30;99.90;;;;;;4948375;29;20546;-67
2024/01/11 03:52:17;;;;;;;29.95;13.82;;;-3.30;99.90;;;;;;4956008;29;20061;-68
2024/01/11 03:54:44;;;;;;;36.85;14.45;;;-3.20;99.90;;;;;;4954791;28;20091;-67
2024/01/11 03:57:11;;;;;;;34.92;15.52;;;-3.30;99.90;;;;;;4951425;28;20521;-68
2024/01/11 03:59:38;;;;;;;34.42;14.65;;;-3.30;99.90;;;;;;4956460;29;20051;-67
2024/01/11 04:02:05;;;;;;;38.85;14.13;;;-3.30;99.90;;;;;;4945835;29;20523;-67
2024/01/11 04:04:33;;;;;;;34.83;14.88;;;-3.20;99.90;;;;;;4953514;28;20114;-67
2024/01/11 04:06:59;;;;;;;37.28;15.38;;;-3.20;99.90;;;;;;4956227;29;20047;-67
2024/01/11 04:09:26;;;;;;;39.50;15.95;;;-3.20;99.90;;;;;;4952898;29;20039;-67
2024/01/11 04:11:53;;;;;;;33.92;15.00;;;-3.20;99.90;;;;;;4952739;29;20438;-67
2024/01/11 04:14:20;;;;;;;35.38;15.88;;;-3.20;99.90;;;;;;4951680;28;20394;-67
2024/01/11 04:16:46;;;;;;;37.70;15.77;;;-3.20;99.90;;;;;;4938794;29;20049;-67
2024/01/11 04:19:13;;;;;;;34.75;15.82;;;-3.20;99.90;;;;;;4956422;28;20047;-67
2024/01/11 04:21:40;;;;;;;33.88;14.10;;;-3.10;99.90;;;;;;4963804;28;20055;-67
2024/01/11 04:24:07;;;;;;;29.65;12.40;;;-3.10;99.90;;;;;;4960737;28;20049;-68
2024/01/11 04:26:34;;;;;;;31.08;13.68;;;-3.00;99.90;;;;;;4941394;29;20043;-68
2024/01/11 04:29:01;;;;;;;32.17;14.55;;;-3.00;99.90;;;;;;4954206;29;20480;-68
2024/01/11 04:31:28;;;;;;;36.35;13.80;;;-3.00;99.90;;;;;;4953688;29;20480;-68
2024/01/11 04:33:55;;;;;;;37.63;13.95;;;-3.10;99.90;;;;;;4947669;28;20047;-68
2024/01/11 04:36:22;;;;;;;28.33;13.13;;;-3.10;99.90;;;;;;4950160;29;20047;-67
2024/01/11 04:38:49;;;;;;;38.72;14.00;;;-3.10;99.90;;;;;;4954607;29;20511;-67
2024/01/11 04:41:16;;;;;;;36.53;15.00;;;-3.10;99.90;;;;;;4954680;29;20077;-68
2024/01/11 04:43:44;;;;;;;;;;;-3.10;99.90;;;;;;4952166;28;20106;-68
2024/01/11 04:46:18;;;;;;;18.67;7.10;;;-3.10;99.90;;;;;;4954247;28;20631;-67
2024/01/11 04:48:46;;;;;;;25.70;10.57;;;-3.20;99.90;;;;;;4952474;29;20062;-68
2024/01/11 04:51:14;;;;;;;24.08;9.10;;;-3.20;99.90;;;;;;4955095;29;20492;-68
2024/01/11 04:53:42;;;;;;;19.70;8.32;;;-3.20;99.90;;;;;;4951918;28;20560;-68
2024/01/11 04:56:10;;;;;;;24.98;10.10;;;-3.20;99.90;;;;;;4955188;29;20043;-67
2024/01/11 04:58:40;;;;;;;21.70;9.85;;;-3.20;99.90;;;;;;4955184;29;20075;-67
2024/01/11 05:01:11;;;;;;;20.63;10.38;;;-3.30;99.90;;;;;;4952626;29;20055;-67
2024/01/11 05:03:38;;;;;;;29.20;12.20;;;-3.30;99.90;;;;;;4947126;28;20054;-67
2024/01/11 05:06:05;;;;;;;28.60;12.73;;;-3.30;99.90;;;;;;4954441;29;20070;-68
2024/01/11 05:08:31;;;;;;;27.40;12.30;;;-3.30;99.90;;;;;;4954256;28;20489;-67
2024/01/11 05:10:58;;;;;;;36.42;12.77;;;-3.20;99.90;;;;;;4953155;29;20082;-68
2024/01/11 05:13:25;;;;;;;28.35;12.43;;;-3.20;99.90;;;;;;4951175;28;20043;-67
2024/01/11 05:15:52;;;;;;;29.60;12.27;;;-3.10;99.90;;;;;;4953306;28;20035;-67
2024/01/11 05:18:19;;;;;;;32.50;13.38;;;-3.10;99.90;;;;;;4937327;29;20039;-67
2024/01/11 05:20:45;;;;;;;40.45;16.60;;;-3.10;99.90;;;;;;4951245;29;20130;-67
2024/01/11 05:23:12;;;;;;;34.45;14.00;;;-3.20;99.90;;;;;;4951714;29;20039;-67
2024/01/11 05:25:39;;;;;;;35.65;15.15;;;-3.20;99.90;;;;;;4951106;28;20043;-68
2024/01/11 05:28:06;;;;;;;35.85;15.15;;;-3.20;99.90;;;;;;4954849;29;20047;-68
2024/01/11 05:30:33;;;;;;;32.42;12.98;;;-3.20;99.90;;;;;;4946223;29;20062;-68
2024/01/11 05:33:00;;;;;;;34.55;14.32;;;-3.20;99.90;;;;;;4950885;28;20400;-68
2024/01/11 05:35:27;;;;;;;35.42;14.52;;;-3.30;99.90;;;;;;4949222;28;20088;-68
2024/01/11 05:37:55;;;;;;;30.58;12.90;;;-3.30;99.90;;;;;;4933348;29;20051;-68
2024/01/11 05:40:21;;;;;;;32.90;14.00;;;-3.30;99.90;;;;;;4931789;29;20062;-67
2024/01/11 05:42:48;;;;;;;35.40;14.25;;;-3.30;99.90;;;;;;4954823;29;20397;-67
2024/01/11 05:45:18;;;;;;;28.73;13.55;;;-3.30;99.90;;;;;;4953621;28;20078;-68
2024/01/11 05:47:52;;;;;;;36.35;15.18;;;-3.30;99.90;;;;;;4949373;29;20058;-67
2024/01/11 05:50:19;;;;;;;29.92;14.50;;;-3.30;99.90;;;;;;4948786;29;20055;-67
2024/01/11 05:52:46;;;;;;;35.35;14.60;;;-3.30;99.90;;;;;;4931300;29;20106;-67
2024/01/11 05:55:13;;;;;;;33.00;13.85;;;-3.30;99.90;;;;;;4949562;28;20061;-67
2024/01/11 05:57:39;;;;;;;35.72;14.52;;;-3.30;99.90;;;;;;4949838;29;20127;-67
2024/01/11 06:00:07;;;;;;;35.42;14.07;;;-3.30;99.90;;;;;;4952623;29;20043;-68
2024/01/11 06:02:35;;;;;;;30.05;14.15;;;-3.30;99.90;;;;;;4950002;29;20059;-67
2024/01/11 06:05:03;;;;;;;31.40;13.35;;;-3.30;99.90;;;;;;4953758;28;20109;-67
2024/01/11 06:07:30;;;;;;;31.38;14.27;;;-3.30;99.90;;;;;;4936967;29;20442;-67
2024/01/11 06:09:56;;;;;;;33.50;13.73;;;-3.20;99.90;;;;;;4931930;29;20047;-67
2024/01/11 06:12:23;;;;;;;32.38;15.82;;;-3.10;99.90;;;;;;4954243;29;20122;-67
2024/01/11 06:14:50;;;;;;;37.22;15.45;;;-3.10;99.90;;;;;;4953020;28;20059;-67
2024/01/11 06:17:17;;;;;;;31.08;14.45;;;-3.10;99.90;;;;;;4952133;29;20039;-67
2024/01/11 06:19:44;;;;;;;31.60;14.15;;;-3.00;99.90;;;;;;4936642;29;20043;-67
2024/01/11 06:22:10;;;;;;;32.88;14.90;;;-3.10;99.90;;;;;;4954105;29;20057;-67
2024/01/11 06:24:37;;;;;;;32.08;14.07;;;-3.00;99.90;;;;;;4948122;29;20073;-68
2024/01/11 06:27:04;;;;;;;33.28;14.77;;;-3.00;99.90;;;;;;4950638;29;20051;-68
2024/01/11 06:29:31;;;;;;;30.23;12.77;;;-3.00;99.90;;;;;;4952707;29;20054;-67
2024/01/11 06:31:58;;;;;;;31.15;14.23;;;-3.10;99.90;;;;;;4945714;29;20064;-68
2024/01/11 06:34:25;;;;;;;34.03;14.98;;;-3.10;99.90;;;;;;4951247;28;20130;-68
2024/01/11 06:36:52;;;;;;;30.35;13.82;;;-3.00;99.90;;;;;;4953237;29;20046;-68
2024/01/11 06:39:19;;;;;;;32.60;13.90;;;-3.00;99.90;;;;;;4952007;29;20392;-67
2024/01/11 06:41:46;;;;;;;30.85;13.23;;;-2.90;99.90;;;;;;4951790;28;20076;-68
2024/01/11 06:44:13;;;;;;;32.78;13.75;;;-3.00;99.90;;;;;;4934332;29;20052;-68
2024/01/11 06:46:41;;;;;;;27.98;11.43;;;-3.00;99.90;;;;;;4952802;29;20504;-67
2024/01/11 06:49:08;;;;;;;25.08;11.70;;;-3.00;99.90;;;;;;4952869;28;20039;-67
2024/01/11 06:51:35;;;;;;;24.05;11.32;;;-3.00;99.90;;;;;;4950171;28;20378;-68
2024/01/11 06:54:02;;;;;;;31.45;13.30;;;-3.00;99.90;;;;;;4933002;29;20055;-68
2024/01/11 06:56:31;;;;;;;34.50;13.38;;;-3.00;99.90;;;;;;4936319;29;20054;-68
2024/01/11 06:58:58;;;;;;;33.72;13.38;;;-3.00;99.90;;;;;;4949747;28;20115;-68
2024/01/11 07:01:25;;;;;;;29.10;12.85;;;-3.10;99.90;;;;;;4950001;28;20039;-68
2024/01/11 07:03:52;;;;;;;30.15;12.77;;;-3.10;99.90;;;;;;4952088;28;20039;-67
2024/01/11 07:06:19;;;;;;;28.52;12.73;;;-3.10;99.90;;;;;;4936997;28;20038;-68
2024/01/11 07:08:46;;;;;;;29.45;13.00;;;-3.10;99.90;;;;;;4950043;28;20050;-67
2024/01/11 07:11:12;;;;;;;28.52;11.77;;;-3.10;99.90;;;;;;4952940;29;20111;-68
2024/01/11 07:13:39;;;;;;;24.15;10.25;;;-3.10;99.90;;;;;;4950271;29;20130;-68
2024/01/11 07:16:06;;;;;;;27.85;11.48;;;-3.10;99.90;;;;;;4949721;28;20386;-68
2024/01/11 07:18:33;;;;;;;25.52;10.52;;;-3.10;99.90;;;;;;4951111;29;20501;-68
2024/01/11 07:21:00;;;;;;;20.15;10.23;;;-3.10;99.90;;;;;;4951304;29;20031;-68
2024/01/11 07:23:27;;;;;;;32.83;12.63;;;-3.10;99.90;;;;;;4939968;28;20099;-68
2024/01/11 07:25:54;;;;;;;22.67;10.60;;;-3.00;99.90;;;;;;4952884;28;20425;-68
2024/01/11 07:28:25;;;;;;;20.90;10.57;;;-3.00;99.90;;;;;;4920577;29;20054;-68
2024/01/11 07:30:55;;;;;;;21.05;10.27;;;-3.20;99.90;;;;;;4941750;29;20124;-68
2024/01/11 07:33:22;;;;;;;28.08;12.57;;;-3.10;99.90;;;;;;4952849;29;20134;-68
2024/01/11 07:35:50;;;;;;;32.33;12.88;;;-3.00;99.90;;;;;;4940789;28;20052;-68
2024/01/11 07:38:17;;;;;;;31.60;13.18;;;-3.00;99.90;;;;;;4950962;29;20047;-68
2024/01/11 07:40:44;;;;;;;36.53;15.07;;;-3.00;99.90;;;;;;4952130;29;20125;-68
2024/01/11 07:43:11;;;;;;;45.10;15.52;;;-3.00;99.90;;;;;;4952605;29;20067;-68
2024/01/11 07:45:38;;;;;;;36.17;14.35;;;-2.90;99.90;;;;;;4952620;28;20407;-68
2024/01/11 07:48:05;;;;;;;32.28;14.55;;;-2.90;99.90;;;;;;4943917;29;20043;-68
2024/01/11 07:50:32;;;;;;;41.83;15.95;;;-2.90;99.90;;;;;;4952491;29;20043;-68
2024/01/11 07:52:59;;;;;;;43.33;17.10;;;-2.90;99.90;;;;;;4929073;29;20445;-68
2024/01/11 07:55:26;;;;;;;32.13;13.35;;;-2.80;99.90;;;;;;4952218;28;20110;-68
2024/01/11 07:57:53;;;;;;;32.53;14.13;;;-2.80;99.90;;;;;;4952393;29;20039;-68
2024/01/11 08:00:20;;;;;;;31.98;13.90;;;-2.80;99.90;;;;;;4949472;29;20400;-68
2024/01/11 08:02:46;;;;;;;30.67;13.57;;;-2.80;99.90;;;;;;4940674;29;20107;-68
2024/01/11 08:05:13;;;;;;;30.65;13.73;;;-2.90;99.90;;;;;;4950917;28;20047;-68
2024/01/11 08:07:42;;;;;;;28.50;13.50;;;-2.80;99.90;;;;;;4951663;29;20090;-68
2024/01/11 08:10:09;;;;;;;34.20;14.02;;;-2.70;99.90;;;;;;4950828;29;20039;-68
2024/01/11 08:12:36;;;;;;;;;;;-2.70;99.90;;;;;;4949298;29;20442;-68
2024/01/11 08:15:03;;;;;;;31.65;13.80;;;-2.70;99.90;;;;;;4936488;29;20189;-68
2024/01/11 08:17:30;;;;;;;32.20;12.65;;;-2.60;99.90;;;;;;4950806;29;20042;-68
2024/01/11 08:19:56;;;;;;;33.58;13.75;;;-2.60;99.90;;;;;;4954110;28;20484;-68
2024/01/11 08:22:24;;;;;;;29.40;13.57;;;-2.50;99.90;;;;;;4954725;29;20043;-68
2024/01/11 08:24:53;;;;;;;33.33;14.48;;;-2.50;99.90;;;;;;4954769;28;20188;-68
2024/01/11 08:27:20;;;;;;;31.58;13.55;;;-2.40;99.90;;;;;;4958895;28;20046;-68
2024/01/11 08:29:47;;;;;;;38.70;15.15;;;-2.40;99.90;;;;;;4955884;29;20408;-68
2024/01/11 08:32:14;;;;;;;35.17;15.38;;;-2.30;99.90;;;;;;4945751;29;20047;-68
2024/01/11 08:34:57;;;;;;;33.00;14.80;;;-2.20;99.90;;;;;;4955121;28;20094;-68
2024/01/11 08:37:24;;;;;;;31.17;14.23;;;-2.10;99.90;;;;;;4955448;29;20086;-68
2024/01/11 08:39:51;;;;;;;;;;;-2.00;99.90;;;;;;4956126;29;20043;-68
2024/01/11 08:42:18;;;;;;;30.27;13.88;;;-2.00;99.90;;;;;;4953455;29;19922;-68
2024/01/11 08:44:45;;;;;;;36.08;15.80;;;-2.00;99.90;;;;;;4955497;28;20043;-68
2024/01/11 08:47:12;;;;;;;38.08;16.27;;;-1.90;99.90;;;;;;4952057;28;20469;-68
2024/01/11 08:49:39;;;;;;;41.80;16.80;;;-2.10;99.90;;;;;;4938288;29;20047;-68
2024/01/11 08:52:07;;;;;;;;;;;-2.10;99.90;;;;;;4953587;29;20067;-68
2024/01/11 08:54:34;;;;;;;36.42;15.05;;;-2.10;99.90;;;;;;4955236;28;19922;-68
2024/01/11 08:57:01;;;;;;;32.45;14.07;;;-2.00;99.90;;;;;;4937946;29;20046;-68
2024/01/11 08:59:28;;;;;;;34.22;14.95;;;-2.00;99.90;;;;;;4955237;29;20051;-68
2024/01/11 09:01:55;;;;;;;28.73;13.32;;;-2.00;99.90;;;;;;4943703;28;20404;-68
2024/01/11 09:04:36;;;;;;;24.50;13.45;;;-2.00;99.90;;;;;;4948269;28;20039;-68
2024/01/11 09:07:03;;;;;;;;;;;-2.10;99.90;;;;;;4955300;29;20107;-68
2024/01/11 09:09:30;;;;;;;27.15;13.48;;;-2.00;99.90;;;;;;4952286;29;19950;-68
2024/01/11 09:12:00;;;;;;;31.02;14.20;;;-2.00;99.90;;;;;;4954969;29;20066;-68
2024/01/11 09:14:27;;;;;;;27.52;13.52;;;-2.00;99.90;;;;;;4946900;28;20045;-68
2024/01/11 09:16:54;;;;;;;26.58;13.10;;;-1.90;99.90;;;;;;4954461;29;20047;-68
2024/01/11 09:19:22;;;;;;;31.85;13.35;;;-1.80;99.90;;;;;;4934696;29;20051;-68
2024/01/11 09:21:48;;;;;;;;;;;-1.60;99.90;;;;;;4949951;29;20497;-68
2024/01/11 09:24:15;;;;;;;29.00;12.88;;;-1.40;99.90;;;;;;4954497;28;19922;-68
2024/01/11 09:26:42;;;;;;;30.75;13.60;;;-1.30;99.90;;;;;;4954817;29;20070;-68
2024/01/11 09:29:09;;;;;;;28.25;13.45;;;-1.20;99.90;;;;;;4946729;29;20043;-68
2024/01/11 09:31:36;;;;;;;29.50;13.38;;;-1.40;99.90;;;;;;4947166;28;20122;-68
2024/01/11 09:34:02;;;;;;;29.83;13.40;;;-1.50;99.90;;;;;;4936667;29;20043;-68
2024/01/11 09:36:29;;;;;;;24.20;12.45;;;-1.60;99.90;;;;;;4954708;29;20047;-68
2024/01/11 09:38:56;;;;;;;27.60;11.73;;;-1.50;99.90;;;;;;4954547;29;20043;-68
2024/01/11 09:41:24;;;;;;;26.98;12.90;;;-1.50;99.90;;;;;;4951285;28;20043;-68
2024/01/11 09:43:54;;;;;;;28.52;13.55;;;-1.50;99.90;;;;;;4954222;28;20047;-68
2024/01/11 09:46:22;;;;;;;26.17;12.18;;;-1.50;99.90;;;;;;4954158;29;20039;-68
2024/01/11 09:48:50;;;;;;;27.85;13.00;;;-1.60;99.90;;;;;;4948112;29;20036;-68
2024/01/11 09:51:17;;;;;;;30.15;14.15;;;-1.70;99.90;;;;;;4953928;29;20046;-68
2024/01/11 09:53:44;;;;;;;27.73;11.93;;;-1.60;99.90;;;;;;4945321;28;20047;-68
2024/01/11 09:56:11;;;;;;;25.80;12.23;;;-1.60;99.90;;;;;;4953778;29;20110;-68
2024/01/11 09:58:45;;;;;;;25.30;12.52;;;-1.50;99.90;;;;;;4954031;29;20049;-68
2024/01/11 10:01:13;;;;;;;26.27;12.07;;;-1.40;99.90;;;;;;4952575;29;20448;-68
2024/01/11 10:03:43;;;;;;;25.48;11.95;;;-1.30;99.90;;;;;;4953918;28;20050;-68
2024/01/11 10:06:10;;;;;;;25.75;12.20;;;-1.30;99.90;;;;;;4936751;29;20043;-68
2024/01/11 10:08:37;;;;;;;;;;;-1.30;99.90;;;;;;4954341;29;20045;-68
2024/01/11 10:11:04;;;;;;;28.45;12.00;;;-1.30;99.90;;;;;;4950768;29;19930;-68
2024/01/11 10:13:32;;;;;;;32.35;12.82;;;-1.30;99.90;;;;;;4953881;28;20429;-68
2024/01/11 10:16:09;;;;;;;26.30;12.68;;;-1.20;99.90;;;;;;4952770;29;20043;-68
2024/01/11 10:18:37;;;;;;;33.63;15.50;;;-1.10;99.90;;;;;;4946287;29;20041;-68
2024/01/11 10:21:04;;;;;;;50.85;20.15;;;-1.10;99.90;;;;;;4953349;29;20507;-68
2024/01/11 10:23:33;;;;;;;33.83;15.00;;;-0.90;99.90;;;;;;4949247;28;20043;-68
2024/01/11 10:26:00;;;;;;;34.05;14.80;;;-0.80;99.90;;;;;;4953731;28;20568;-68
2024/01/11 10:28:28;;;;;;;36.00;14.05;;;-0.60;99.90;;;;;;4953526;28;20508;-68
2024/01/11 10:30:56;;;;;;;30.13;13.27;;;-0.40;99.90;;;;;;4946958;29;20078;-68
2024/01/11 10:33:23;;;;;;;28.48;12.73;;;-0.30;99.90;;;;;;4949872;28;20054;-68
2024/01/11 10:35:50;;;;;;;25.35;12.50;;;-0.40;99.90;;;;;;4922695;29;20056;-68
2024/01/11 10:38:17;;;;;;;26.80;12.32;;;-0.50;99.90;;;;;;4951004;29;20408;-68
2024/01/11 10:40:45;;;;;;;;;;;-0.50;99.90;;;;;;4950554;29;20039;-68
2024/01/11 10:43:15;;;;;;;26.20;12.32;;;-0.50;99.90;;;;;;4952143;28;20362;-68
2024/01/11 10:45:44;;;;;;;29.88;14.40;;;-0.60;99.90;;;;;;4945060;28;20046;-68
2024/01/11 10:48:15;;;;;;;37.05;15.20;;;-0.50;99.90;;;;;;4953154;29;20043;-68
2024/01/11 10:50:49;;;;;;;38.45;16.02;;;-0.50;99.90;;;;;;4942906;29;20087;-68
2024/01/11 10:53:45;;;;;;;25.85;14.15;;;-0.60;99.90;;;;;;4951573;29;20053;-68
2024/01/11 10:56:14;;;;;;;36.40;15.05;;;-0.70;99.90;;;;;;4940651;29;20528;-68
2024/01/11 10:58:42;;;;;;;28.50;14.10;;;-0.70;99.90;;;;;;4938302;29;20135;-68
2024/01/11 11:01:10;;;;;;;29.80;15.00;;;-0.60;99.90;;;;;;4935678;29;20133;-68
2024/01/11 11:03:38;;;;;;;27.63;13.93;;;-0.70;99.90;;;;;;4929549;28;20040;-68
2024/01/11 11:06:08;;;;;;;28.30;13.20;;;-0.50;99.90;;;;;;4945491;29;20039;-68
2024/01/11 11:08:37;;;;;;;29.75;13.88;;;-0.40;99.90;;;;;;4952912;29;20449;-68
2024/01/11 11:11:08;;;;;;;25.30;11.60;;;-0.30;99.90;;;;;;4952446;29;20058;-68
2024/01/11 11:13:35;;;;;;;41.17;15.60;;;-0.30;99.90;;;;;;4945762;28;20062;-68
2024/01/11 11:16:03;;;;;;;36.85;15.27;;;-0.60;99.90;;;;;;4935740;29;20446;-68
2024/01/11 11:18:34;;;;;;;49.25;20.77;;;-0.50;99.90;;;;;;4952845;29;20058;-68
2024/01/11 11:21:09;;;;;;;35.67;16.13;;;-0.40;99.90;;;;;;4947208;29;20047;-68
2024/01/11 11:23:36;;;;;;;30.40;13.88;;;-0.50;99.90;;;;;;4951911;28;20043;-68
2024/01/11 11:26:07;;;;;;;28.63;13.50;;;-0.50;99.90;;;;;;4952356;29;20043;-68
2024/01/11 11:28:34;;;;;;;28.30;12.98;;;-0.50;99.90;;;;;;4945914;28;20039;-68
2024/01/11 11:31:02;;;;;;;35.05;15.40;;;-0.50;99.90;;;;;;4950972;29;20505;-68
2024/01/11 11:33:31;;;;;;;27.23;13.55;;;-0.50;99.90;;;;;;4951415;28;20039;-68
2024/01/11 11:35:58;;;;;;;35.97;14.32;;;-0.50;99.90;;;;;;4930630;29;20046;-68
2024/01/11 11:38:31;;;;;;;30.27;12.70;;;-0.50;99.90;;;;;;4942963;29;20035;-68
2024/01/11 11:40:59;;;;;;;29.23;13.80;;;-0.40;99.90;;;;;;4948844;28;20074;-67
2024/01/11 11:43:28;;;;;;;31.20;15.20;;;-0.30;99.90;;;;;;4952101;28;20110;-68
2024/01/11 11:45:56;;;;;;;32.95;15.50;;;-0.20;99.90;;;;;;4949939;29;20572;-68
2024/01/11 11:48:31;;;;;;;30.60;15.10;;;-0.20;99.90;;;;;;4952666;29;20401;-68
2024/01/11 11:51:18;;;;;;;34.88;15.70;;;-0.10;99.90;;;;;;4946776;29;20040;-68
2024/01/11 11:53:51;;;;;;;32.97;16.63;;;0.00;99.90;;;;;;4945564;28;20473;-68
2024/01/11 11:56:20;;;;;;;40.13;17.15;;;-0.30;99.90;;;;;;4956047;29;20131;-68
2024/01/11 11:58:48;;;;;;;47.53;20.13;;;-0.20;99.90;;;;;;4956251;29;20054;-68
2024/01/11 12:01:17;;;;;;;29.55;14.15;;;-0.20;99.90;;;;;;4952088;29;20496;-68
2024/01/11 12:03:51;;;;;;;29.23;14.13;;;0.00;99.90;;;;;;4956047;28;20039;-68
2024/01/11 12:06:20;;;;;;;30.65;14.73;;;0.10;99.90;;;;;;4948287;29;20237;-68
2024/01/11 12:08:48;;;;;;;35.65;14.20;;;0.30;99.90;;;;;;4948271;29;20043;-68
2024/01/11 12:11:21;;;;;;;30.25;13.65;;;0.20;99.90;;;;;;4955439;29;20045;-68
2024/01/11 12:13:49;;;;;;;29.40;13.68;;;0.10;99.90;;;;;;4955575;28;20114;-68
2024/01/11 12:16:16;;;;;;;28.58;13.25;;;-0.10;99.90;;;;;;4951629;29;20059;-68
2024/01/11 12:18:43;;;;;;;30.60;13.85;;;-0.30;99.90;;;;;;4955343;29;20039;-68
2024/01/11 12:21:10;;;;;;;26.95;13.10;;;-0.50;99.90;;;;;;4953622;29;20073;-68
2024/01/11 12:23:39;;;;;;;31.00;13.70;;;-0.50;99.90;;;;;;4955315;28;20059;-68
2024/01/11 12:26:14;;;;;;;31.95;13.65;;;-0.40;99.90;;;;;;4955585;29;20058;-68
2024/01/11 12:28:43;;;;;;;28.65;14.70;;;-0.30;99.90;;;;;;4953940;29;20051;-68
2024/01/11 12:31:12;;;;;;;55.13;18.23;;;-0.20;99.90;;;;;;4950286;29;20075;-68
2024/01/11 12:33:40;;;;;;;66.05;23.20;;;-0.30;99.90;;;;;;4954549;28;20501;-68
2024/01/11 12:36:08;;;;;;;73.47;24.20;;;-0.30;99.90;;;;;;4955429;29;20062;-68